createdAt,value
2019-06-08T00:01:10.279Z,1.30
2019-06-08T00:03:39.124Z,1.20
2019-06-08T00:06:06.942Z,1.30
2019-06-08T00:08:35.375Z,1.35
2019-06-08T00:11:04.004Z,1.35
2019-06-08T00:13:33.434Z,1.20
2019-06-08T00:16:02.842Z,1.50
2019-06-08T00:18:32.367Z,1.40
2019-06-08T00:21:01.941Z,1.50
2019-06-08T00:25:24.111Z,1.30
2019-06-08T00:29:30.458Z,1.10
2019-06-08T00:31:59.674Z,1.40
2019-06-08T00:34:28.217Z,1.30
2019-06-08T00:36:56.843Z,1.25
2019-06-08T00:40:21.111Z,1.20
2019-06-08T00:42:50.228Z,1.20
2019-06-08T00:45:21.856Z,1.20
2019-06-08T00:47:51.963Z,1.60
2019-06-08T00:52:34.207Z,1.30
2019-06-08T00:55:03.525Z,1.37
2019-06-08T00:57:32.028Z,1.40
2019-06-08T01:00:09.725Z,1.40
2019-06-08T01:02:32.349Z,1.40
2019-06-08T01:05:01.098Z,1.20
2019-06-08T01:07:30.488Z,1.40
2019-06-08T01:10:01.165Z,1.20
2019-06-08T01:12:29.973Z,1.60
2019-06-08T01:14:58.629Z,1.10
2019-06-08T01:17:27.702Z,1.53
2019-06-08T01:20:19.556Z,1.30
2019-06-08T01:22:49.087Z,1.20
2019-06-08T01:25:20.120Z,1.40
2019-06-08T01:27:49.274Z,1.10
2019-06-08T01:30:18.362Z,1.50
2019-06-08T01:32:47.612Z,1.30
2019-06-08T01:35:17.262Z,1.30
2019-06-08T01:37:46.324Z,1.60
2019-06-08T01:40:15.376Z,1.50
2019-06-08T01:42:44.537Z,1.37
2019-06-08T01:45:17.246Z,1.30
2019-06-08T01:47:47.002Z,1.40
2019-06-08T01:50:15.241Z,1.10
2019-06-08T01:52:44.409Z,1.20
2019-06-08T01:55:12.794Z,1.50
2019-06-08T01:57:42.054Z,1.30
2019-06-08T02:05:09.599Z,1.60
2019-06-08T02:07:38.371Z,1.33
2019-06-08T02:10:06.960Z,1.20
2019-06-08T02:12:35.423Z,1.20
2019-06-08T02:15:03.470Z,1.20
2019-06-08T02:17:32.030Z,1.15
2019-06-08T02:20:01.406Z,1.20
2019-06-08T02:22:31.031Z,1.40
2019-06-08T02:24:59.850Z,1.20
2019-06-08T02:27:29.282Z,0.90
2019-06-08T02:29:58.840Z,1.40
2019-06-08T02:32:28.630Z,1.30
2019-06-08T02:34:58.828Z,1.40
2019-06-08T02:37:28.726Z,1.40
2019-06-08T02:39:58.991Z,1.60
2019-06-08T02:42:28.395Z,1.30
2019-06-08T02:44:57.631Z,1.30
2019-06-08T02:47:30.299Z,1.33
2019-06-08T02:49:59.121Z,1.10
2019-06-08T02:52:29.868Z,1.20
2019-06-08T02:57:26.096Z,1.30
2019-06-08T02:59:55.944Z,1.30
2019-06-08T03:02:29.587Z,1.30
2019-06-08T03:04:59.924Z,1.90
2019-06-08T03:12:22.766Z,1.30
2019-06-08T03:14:52.440Z,1.45
2019-06-08T03:17:20.959Z,1.60
2019-06-08T03:20:08.875Z,1.10
2019-06-08T03:22:40.765Z,1.23
2019-06-08T03:25:10.860Z,1.30
2019-06-08T03:27:40.632Z,1.30
2019-06-08T03:30:16.985Z,1.35
2019-06-08T03:32:50.513Z,1.00
2019-06-08T03:35:11.772Z,1.30
2019-06-08T03:37:40.077Z,1.50
2019-06-08T03:40:09.160Z,1.30
2019-06-08T03:42:37.483Z,1.37
2019-06-08T03:47:49.213Z,1.30
2019-06-08T03:50:17.455Z,1.30
2019-06-08T03:52:46.267Z,1.40
2019-06-08T03:55:14.477Z,1.32
2019-06-08T03:57:43.955Z,1.50
2019-06-08T04:02:44.153Z,1.20
2019-06-08T04:09:12.057Z,1.30
2019-06-08T04:11:42.440Z,1.30
2019-06-08T04:16:40.249Z,1.20
2019-06-08T04:21:35.692Z,1.20
2019-06-08T04:24:04.674Z,1.40
2019-06-08T04:26:35.085Z,1.17
2019-06-08T04:29:05.149Z,1.50
2019-06-08T04:31:35.376Z,1.15
2019-06-08T04:34:47.548Z,1.35
2019-06-08T04:37:16.950Z,1.20
2019-06-08T04:39:46.970Z,1.30
2019-06-08T04:47:13.509Z,1.20
2019-06-08T04:49:43.125Z,1.60
2019-06-08T04:54:40.847Z,1.25
2019-06-08T04:59:36.663Z,1.40
2019-06-08T05:02:05.725Z,1.30
2019-06-08T05:04:34.043Z,1.70
2019-06-08T05:07:03.556Z,1.90
2019-06-08T05:09:32.838Z,1.15
2019-06-08T05:12:02.895Z,1.20
2019-06-08T05:14:31.224Z,1.45
2019-06-08T05:17:00.962Z,1.60
2019-06-08T05:19:30.389Z,1.50
2019-06-08T05:21:59.183Z,1.40
2019-06-08T05:24:28.475Z,1.30
2019-06-08T05:26:56.814Z,1.30
2019-06-08T05:29:25.839Z,1.30
2019-06-08T05:31:54.982Z,1.45
2019-06-08T05:34:22.848Z,1.42
2019-06-08T05:36:52.518Z,1.50
2019-06-08T05:39:20.383Z,2.15
2019-06-08T05:41:49.754Z,1.30
2019-06-08T05:44:19.113Z,1.20
2019-06-08T05:46:47.938Z,1.25
2019-06-08T05:49:16.657Z,1.50
2019-06-08T05:51:45.829Z,1.70
2019-06-08T05:54:13.968Z,1.80
2019-06-08T05:56:42.024Z,1.45
2019-06-08T05:59:09.839Z,1.40
2019-06-08T06:01:40.440Z,0.90
2019-06-08T06:04:08.560Z,1.43
2019-06-08T06:06:37.030Z,1.10
2019-06-08T06:09:08.630Z,1.30
2019-06-08T06:11:37.471Z,1.50
2019-06-08T06:14:06.526Z,1.45
2019-06-08T06:18:07.223Z,1.30
2019-06-08T06:20:35.828Z,1.40
2019-06-08T06:23:04.226Z,1.70
2019-06-08T06:25:32.282Z,1.30
2019-06-08T06:28:05.958Z,1.30
2019-06-08T06:30:33.576Z,1.50
2019-06-08T06:33:02.114Z,1.73
2019-06-08T06:35:31.495Z,1.50
2019-06-08T06:38:00.438Z,1.60
2019-06-08T06:40:28.705Z,1.60
2019-06-08T06:42:57.593Z,1.40
2019-06-08T06:48:10.697Z,1.50
2019-06-08T06:50:40.766Z,1.50
2019-06-08T06:53:09.906Z,1.60
2019-06-08T06:55:39.868Z,1.60
2019-06-08T06:58:09.348Z,1.60
2019-06-08T07:00:38.167Z,1.77
2019-06-08T07:08:42.078Z,1.70
2019-06-08T07:11:10.368Z,1.80
2019-06-08T07:13:39.523Z,1.90
2019-06-08T07:16:18.362Z,1.90
2019-06-08T07:18:39.577Z,2.00
2019-06-08T07:21:08.448Z,1.65
2019-06-08T07:23:37.080Z,1.70
2019-06-08T07:26:05.487Z,1.80
2019-06-08T07:28:33.589Z,2.00
2019-06-08T07:31:01.990Z,1.60
2019-06-08T07:33:29.966Z,1.50
2019-06-08T07:35:59.859Z,2.00
2019-06-08T07:38:29.648Z,1.90
2019-06-08T07:41:00.580Z,1.90
2019-06-08T07:45:26.278Z,1.80
2019-06-08T07:50:24.950Z,1.90
2019-06-08T07:52:54.970Z,2.20
2019-06-08T07:55:23.953Z,2.00
2019-06-08T08:01:11.975Z,1.65
2019-06-08T08:03:40.612Z,1.70
2019-06-08T08:06:10.487Z,1.80
2019-06-08T08:08:40.500Z,2.00
2019-06-08T08:11:09.386Z,1.80
2019-06-08T08:16:22.229Z,1.90
2019-06-08T08:18:51.147Z,1.90
2019-06-08T08:21:25.520Z,2.00
2019-06-08T08:23:53.219Z,2.10
2019-06-08T08:26:22.301Z,2.00
2019-06-08T08:28:53.135Z,2.00
2019-06-08T08:31:21.157Z,2.20
2019-06-08T08:33:51.334Z,1.75
2019-06-08T08:36:21.050Z,1.85
2019-06-08T08:38:51.841Z,1.80
2019-06-08T08:43:01.488Z,1.85
2019-06-08T08:45:30.185Z,1.80
2019-06-08T08:48:15.039Z,2.20
2019-06-08T08:50:30.419Z,1.90
2019-06-08T08:55:42.077Z,2.10
2019-06-08T09:01:13.928Z,2.00
2019-06-08T09:03:43.769Z,2.50
2019-06-08T09:07:53.735Z,2.00
2019-06-08T09:10:23.104Z,2.20
2019-06-08T09:16:17.796Z,1.87
2019-06-08T09:18:48.005Z,1.90
2019-06-08T09:21:18.562Z,2.25
2019-06-08T09:23:48.689Z,2.05
2019-06-08T09:26:17.818Z,2.20
2019-06-08T09:28:47.039Z,2.05
2019-06-08T09:31:18.369Z,1.95
2019-06-08T09:33:55.140Z,1.85
2019-06-08T09:36:19.045Z,2.20
2019-06-08T09:40:00.884Z,1.90
2019-06-08T09:42:31.093Z,2.20
2019-06-08T09:45:03.023Z,1.80
2019-06-08T09:47:30.547Z,1.70
2019-06-08T09:50:02.448Z,1.70
2019-06-08T09:52:31.311Z,1.80
2019-06-08T09:55:03.718Z,1.90
2019-06-08T09:57:31.531Z,1.90
2019-06-08T10:00:04.366Z,2.00
2019-06-08T10:02:30.705Z,2.20
2019-06-08T10:05:02.114Z,2.20
2019-06-08T10:07:34.140Z,2.00
2019-06-08T10:10:04.784Z,1.80
2019-06-08T10:12:34.903Z,1.95
2019-06-08T10:16:24.842Z,1.80
2019-06-08T10:18:56.843Z,2.20
2019-06-08T10:21:28.400Z,2.10
2019-06-08T10:24:00.918Z,1.60
2019-06-08T10:26:29.038Z,1.80
2019-06-08T10:29:00.250Z,1.77
2019-06-08T10:31:38.959Z,2.10
2019-06-08T10:34:03.466Z,1.90
2019-06-08T10:36:32.774Z,2.10
2019-06-08T10:41:31.030Z,2.25
2019-06-08T10:44:03.472Z,2.30
2019-06-08T10:47:29.766Z,2.10
2019-06-08T10:51:40.987Z,2.10
2019-06-08T10:54:11.314Z,2.30
2019-06-08T10:56:39.982Z,2.30
2019-06-08T10:59:12.335Z,2.00
2019-06-08T11:01:42.404Z,2.75
2019-06-08T11:04:11.665Z,2.00
2019-06-08T11:06:41.720Z,2.40
2019-06-08T11:11:53.986Z,2.20
2019-06-08T11:14:23.647Z,2.30
2019-06-08T11:16:53.053Z,2.13
2019-06-08T11:19:21.158Z,2.40
2019-06-08T11:21:49.492Z,2.00
2019-06-08T11:24:24.559Z,1.80
2019-06-08T11:26:52.327Z,1.80
2019-06-08T11:29:20.403Z,2.30
2019-06-08T11:31:51.063Z,1.90
2019-06-08T11:34:21.884Z,2.00
2019-06-08T11:36:51.889Z,1.80
2019-06-08T11:39:20.208Z,1.75
2019-06-08T11:41:48.581Z,2.30
2019-06-08T11:44:18.230Z,1.95
2019-06-08T11:49:01.091Z,2.15
2019-06-08T11:51:31.061Z,1.95
2019-06-08T11:54:01.150Z,2.30
2019-06-08T11:59:01.001Z,1.90
2019-06-08T12:02:48.608Z,2.00
2019-06-08T12:07:09.127Z,1.80
2019-06-08T12:09:37.960Z,1.80
2019-06-08T12:12:16.216Z,1.80
2019-06-08T12:14:41.045Z,1.97
2019-06-08T12:17:14.325Z,1.95
2019-06-08T12:19:39.619Z,1.80
2019-06-08T12:22:10.011Z,1.95
2019-06-08T12:24:42.358Z,1.90
2019-06-08T12:27:22.385Z,1.55
2019-06-08T12:29:40.545Z,1.60
2019-06-08T12:32:10.754Z,1.65
2019-06-08T12:34:39.626Z,2.00
2019-06-08T12:37:08.782Z,2.00
2019-06-08T12:39:38.741Z,1.90
2019-06-08T12:42:11.291Z,1.65
2019-06-08T12:44:38.301Z,1.63
2019-06-08T12:47:10.653Z,1.80
2019-06-08T12:49:40.408Z,1.60
2019-06-08T12:54:38.212Z,1.60
2019-06-08T12:57:10.255Z,1.90
2019-06-08T12:59:38.501Z,1.95
2019-06-08T13:04:28.700Z,1.70
2019-06-08T13:06:58.442Z,1.80
2019-06-08T13:09:29.924Z,1.75
2019-06-08T13:11:59.435Z,2.10
2019-06-08T13:14:29.465Z,2.30
2019-06-08T13:19:28.154Z,2.20
2019-06-08T13:21:58.265Z,2.10
2019-06-08T13:24:28.603Z,2.05
2019-06-08T13:26:58.242Z,1.70
2019-06-08T13:29:28.224Z,2.00
2019-06-08T13:31:58.634Z,2.30
2019-06-08T13:34:28.816Z,1.70
2019-06-08T13:39:40.548Z,2.27
2019-06-08T13:42:11.356Z,1.40
2019-06-08T13:44:40.552Z,1.70
2019-06-08T13:49:39.072Z,2.20
2019-06-08T13:52:07.990Z,2.20
2019-06-08T13:54:38.161Z,1.70
2019-06-08T13:57:08.535Z,2.15
2019-06-08T14:02:06.399Z,2.10
2019-06-08T14:04:39.414Z,1.95
2019-06-08T14:07:07.601Z,2.00
2019-06-08T14:09:35.159Z,1.80
2019-06-08T14:12:04.214Z,1.80
2019-06-08T14:14:33.877Z,1.90
2019-06-08T14:19:31.759Z,2.20
2019-06-08T14:22:00.601Z,2.10
2019-06-08T14:24:34.294Z,1.95
2019-06-08T14:29:30.421Z,1.70
2019-06-08T14:31:59.603Z,1.70
2019-06-08T14:34:31.305Z,1.70
2019-06-08T14:37:00.923Z,1.70
2019-06-08T14:39:31.728Z,1.70
2019-06-08T14:42:00.881Z,1.80
2019-06-08T14:44:32.095Z,1.65
2019-06-08T14:47:03.923Z,1.50
2019-06-08T14:51:01.634Z,2.20
2019-06-08T14:53:31.278Z,1.90
2019-06-08T14:56:08.355Z,1.90
2019-06-08T14:58:35.036Z,1.95
2019-06-08T15:01:04.037Z,1.75
2019-06-08T15:03:32.366Z,2.00
2019-06-08T15:06:01.461Z,1.80
2019-06-08T15:08:31.542Z,1.70
2019-06-08T15:11:00.365Z,2.00
2019-06-08T15:13:31.159Z,1.70
2019-06-08T15:16:00.856Z,2.90
2019-06-08T15:18:31.890Z,4.00
2019-06-08T15:21:02.646Z,3.45
2019-06-08T15:23:32.742Z,3.00
2019-06-08T15:26:03.433Z,2.20
2019-06-08T15:28:35.886Z,2.25
2019-06-08T15:31:03.095Z,1.90
2019-06-08T15:33:33.809Z,1.55
2019-06-08T15:36:41.758Z,2.20
2019-06-08T15:39:11.114Z,2.20
2019-06-08T15:41:40.196Z,1.60
2019-06-08T15:48:30.989Z,1.70
2019-06-08T15:50:59.442Z,1.85
2019-06-08T15:53:29.675Z,1.70
2019-06-08T15:55:59.992Z,3.90
2019-06-08T15:58:29.994Z,1.50
2019-06-08T16:00:59.861Z,1.90
2019-06-08T16:03:29.337Z,1.27
2019-06-08T16:05:59.182Z,1.65
2019-06-08T16:08:30.266Z,1.95
2019-06-08T16:10:59.368Z,1.60
2019-06-08T16:13:28.758Z,2.00
2019-06-08T16:15:58.123Z,2.00
2019-06-08T16:20:56.216Z,1.60
2019-06-08T16:23:25.338Z,1.60
2019-06-08T16:25:56.194Z,1.90
2019-06-08T16:28:27.727Z,1.90
2019-06-08T16:30:57.139Z,1.60
2019-06-08T16:33:27.313Z,1.57
2019-06-08T16:35:55.948Z,1.70
2019-06-08T16:38:25.562Z,2.20
2019-06-08T16:40:53.831Z,1.90
2019-06-08T16:45:50.665Z,1.80
2019-06-08T16:48:19.856Z,1.85
2019-06-08T16:50:51.489Z,1.70
2019-06-08T16:53:19.865Z,1.55
2019-06-08T16:55:49.306Z,2.40
2019-06-08T16:58:18.455Z,2.50
2019-06-08T17:00:47.650Z,2.40
2019-06-08T17:03:21.543Z,2.10
2019-06-08T17:05:51.037Z,2.40
2019-06-08T17:08:21.120Z,2.20
2019-06-08T17:10:50.354Z,2.00
2019-06-08T17:13:19.244Z,2.20
2019-06-08T17:15:47.950Z,1.60
2019-06-08T17:20:45.202Z,2.00
2019-06-08T17:23:14.007Z,1.93
2019-06-08T17:25:42.600Z,1.80
2019-06-08T17:28:11.052Z,2.20
2019-06-08T17:30:39.600Z,1.70
2019-06-08T17:33:09.050Z,2.10
2019-06-08T17:35:39.844Z,1.60
2019-06-08T17:38:08.420Z,2.30
2019-06-08T17:40:38.063Z,1.90
2019-06-08T17:45:36.432Z,2.00
2019-06-08T17:48:05.656Z,2.10
2019-06-08T17:51:46.668Z,2.00
2019-06-08T17:56:45.182Z,1.90
2019-06-08T17:59:14.154Z,1.60
2019-06-08T18:01:43.827Z,2.30
2019-06-08T18:04:13.880Z,2.60
2019-06-08T18:06:43.413Z,2.27
2019-06-08T18:09:13.874Z,2.25
2019-06-08T18:12:27.008Z,2.20
2019-06-08T18:15:43.103Z,2.00
2019-06-08T18:18:11.577Z,2.10
2019-06-08T18:25:47.887Z,2.20
2019-06-08T18:28:17.196Z,2.30
2019-06-08T18:30:49.128Z,2.00
2019-06-08T18:33:18.573Z,2.60
2019-06-08T18:35:49.141Z,3.10
2019-06-08T18:38:18.040Z,4.60
2019-06-08T18:40:48.335Z,4.90
2019-06-08T18:43:18.577Z,5.20
2019-06-08T18:45:48.576Z,4.30
2019-06-08T18:48:17.591Z,3.80
2019-06-08T18:50:48.682Z,4.10
2019-06-08T18:55:50.247Z,4.30
2019-06-08T18:58:24.773Z,3.20
2019-06-08T19:00:51.689Z,3.25
2019-06-08T19:03:20.001Z,2.70
2019-06-08T19:05:50.467Z,2.55
2019-06-08T19:08:20.372Z,2.43
2019-06-08T19:13:20.962Z,2.60
2019-06-08T19:16:13.084Z,2.30
2019-06-08T19:18:46.209Z,2.70
2019-06-08T19:21:11.741Z,2.60
2019-06-08T19:26:09.665Z,2.65
2019-06-08T19:28:44.956Z,2.70
2019-06-08T19:31:11.963Z,3.40
2019-06-08T19:34:20.425Z,3.00
2019-06-08T19:36:54.196Z,3.20
2019-06-08T19:39:20.925Z,3.15
2019-06-08T19:41:50.589Z,3.10
2019-06-08T19:44:20.059Z,3.35
2019-06-08T19:46:52.371Z,3.80
2019-06-08T19:51:49.387Z,3.60
2019-06-08T19:54:18.241Z,3.00
2019-06-08T19:56:53.129Z,2.70
2019-06-08T19:59:19.864Z,4.15
2019-06-08T20:01:54.422Z,5.70
2019-06-08T20:06:50.719Z,3.90
2019-06-08T20:14:24.790Z,4.05
2019-06-08T20:16:54.202Z,3.80
2019-06-08T20:19:24.388Z,3.80
2019-06-08T20:21:53.498Z,3.40
2019-06-08T20:24:22.723Z,3.60
2019-06-08T20:26:54.710Z,3.60
2019-06-08T20:29:23.902Z,4.07
2019-06-08T20:31:52.216Z,3.60
2019-06-08T20:34:21.097Z,3.55
2019-06-08T20:36:51.105Z,3.90
2019-06-08T20:39:21.254Z,3.20
2019-06-08T20:41:51.892Z,3.50
2019-06-08T20:44:22.152Z,2.80
2019-06-08T20:49:23.894Z,3.45
2019-06-08T20:51:53.923Z,3.20
2019-06-08T20:54:22.553Z,3.00
2019-06-08T20:59:30.081Z,3.70
2019-06-08T21:01:56.404Z,3.40
2019-06-08T21:04:24.741Z,3.30
2019-06-08T21:06:54.475Z,3.40
2019-06-08T21:11:54.483Z,3.50
2019-06-08T21:14:27.194Z,3.40
2019-06-08T21:16:58.554Z,3.50
2019-06-08T21:19:28.135Z,3.20
2019-06-08T21:21:59.227Z,3.30
2019-06-08T21:24:28.317Z,3.40
2019-06-08T21:27:00.709Z,4.00
2019-06-08T21:29:46.500Z,4.00
2019-06-08T21:32:01.829Z,4.00
2019-06-08T21:34:29.516Z,3.55
2019-06-08T21:37:00.852Z,3.60
2019-06-08T21:39:30.269Z,4.00
2019-06-08T21:43:01.557Z,4.20
2019-06-08T21:45:29.896Z,3.70
2019-06-08T21:48:00.514Z,4.00
2019-06-08T21:50:29.492Z,3.83
2019-06-08T21:53:00.434Z,3.97
2019-06-08T21:57:55.366Z,3.90
2019-06-08T22:00:38.779Z,3.40
2019-06-08T22:02:58.468Z,3.50
2019-06-08T22:05:25.909Z,4.25
2019-06-08T22:07:54.231Z,4.10
2019-06-08T22:10:22.683Z,3.80
2019-06-08T22:14:38.174Z,4.30
2019-06-08T22:17:08.209Z,3.70
2019-06-08T22:19:38.800Z,3.90
2019-06-08T22:24:08.905Z,3.60
2019-06-08T22:26:38.561Z,3.60
2019-06-08T22:29:07.969Z,3.50
2019-06-08T22:31:38.095Z,3.50
2019-06-08T22:34:07.437Z,3.80
2019-06-08T22:39:08.279Z,3.85
2019-06-08T22:41:37.502Z,4.05
2019-06-08T22:44:08.322Z,4.20
2019-06-08T22:46:38.165Z,3.70
2019-06-08T22:49:08.071Z,3.80
2019-06-08T22:51:38.352Z,3.87
2019-06-08T22:54:08.159Z,3.55
2019-06-08T22:59:09.004Z,3.90
2019-06-08T23:01:38.566Z,3.40
2019-06-08T23:04:08.906Z,3.60
2019-06-08T23:06:38.753Z,3.65
2019-06-08T23:09:08.969Z,3.30
2019-06-08T23:11:37.771Z,3.50
2019-06-08T23:16:37.429Z,4.10
2019-06-08T23:19:08.023Z,4.20
2019-06-08T23:21:38.248Z,3.40
2019-06-08T23:24:08.663Z,3.80
2019-06-08T23:29:07.790Z,3.90
2019-06-08T23:31:39.261Z,3.90
2019-06-08T23:34:11.645Z,3.95
2019-06-08T23:38:37.688Z,3.75
2019-06-08T23:44:01.437Z,3.85
2019-06-08T23:49:02.455Z,4.00
2019-06-08T23:51:33.103Z,3.60
2019-06-08T23:54:03.764Z,3.45
2019-06-08T23:56:32.879Z,3.70
2019-06-08T23:59:03.180Z,3.75
